sensor_id;sensor_type;location;lat;lon;timestamp;pressure;altitude;pressure_sealevel;temperature;humidity
49841;BME280;35738;49.890;5.930;2022-12-07T00:01:19;95883.47;;;-0.39;100.00
49841;BME280;35738;49.890;5.930;2022-12-07T00:03:47;95888.88;;;-0.39;100.00
49841;BME280;35738;49.890;5.930;2022-12-07T00:06:16;95889.16;;;-0.41;100.00
49841;BME280;35738;49.890;5.930;2022-12-07T00:08:43;95875.34;;;-0.44;100.00
49841;BME280;35738;49.890;5.930;2022-12-07T00:11:19;95885.63;;;-0.41;100.00
49841;BME280;35738;49.890;5.930;2022-12-07T00:13:47;95877.25;;;-0.40;100.00
49841;BME280;35738;49.890;5.930;2022-12-07T00:16:18;95874.53;;;-0.45;100.00
49841;BME280;35738;49.890;5.930;2022-12-07T00:18:45;95875.91;;;-0.42;100.00
49841;BME280;35738;49.890;5.930;2022-12-07T00:23:41;95880.53;;;-0.38;100.00
49841;BME280;35738;49.890;5.930;2022-12-07T00:26:09;95876.75;;;-0.37;100.00
49841;BME280;35738;49.890;5.930;2022-12-07T00:28:36;95876.75;;;-0.37;100.00
49841;BME280;35738;49.890;5.930;2022-12-07T00:31:08;95867.03;;;-0.33;100.00
49841;BME280;35738;49.890;5.930;2022-12-07T00:33:36;95859.50;;;-0.30;100.00
49841;BME280;35738;49.890;5.930;2022-12-07T00:36:05;95859.50;;;-0.30;100.00
49841;BME280;35738;49.890;5.930;2022-12-07T00:38:34;95859.78;;;-0.27;100.00
49841;BME280;35738;49.890;5.930;2022-12-07T00:41:07;95851.63;;;-0.32;100.00
49841;BME280;35738;49.890;5.930;2022-12-07T00:43:35;95847.59;;;-0.29;100.00
49841;BME280;35738;49.890;5.930;2022-12-07T00:46:02;95845.19;;;-0.26;100.00
49841;BME280;35738;49.890;5.930;2022-12-07T00:48:29;95851.94;;;-0.28;100.00
49841;BME280;35738;49.890;5.930;2022-12-07T00:50:56;95851.94;;;-0.28;100.00
49841;BME280;35738;49.890;5.930;2022-12-07T00:53:23;95838.16;;;-0.27;100.00
49841;BME280;35738;49.890;5.930;2022-12-07T00:55:50;95831.94;;;-0.27;100.00
49841;BME280;35738;49.890;5.930;2022-12-07T00:58:16;95834.91;;;-0.29;100.00
49841;BME280;35738;49.890;5.930;2022-12-07T01:00:43;95840.03;;;-0.27;100.00
49841;BME280;35738;49.890;5.930;2022-12-07T01:03:12;95845.44;;;-0.27;100.00
49841;BME280;35738;49.890;5.930;2022-12-07T01:05:39;95843.00;;;-0.29;100.00
49841;BME280;35738;49.890;5.930;2022-12-07T01:08:08;95842.75;;;-0.27;100.00
49841;BME280;35738;49.890;5.930;2022-12-07T01:10:34;95838.41;;;-0.28;100.00
49841;BME280;35738;49.890;5.930;2022-12-07T01:13:01;95838.97;;;-0.26;100.00
49841;BME280;35738;49.890;5.930;2022-12-07T01:15:28;95837.91;;;-0.25;100.00
49841;BME280;35738;49.890;5.930;2022-12-07T01:17:54;95842.22;;;-0.24;100.00
49841;BME280;35738;49.890;5.930;2022-12-07T01:20:22;95843.31;;;-0.20;100.00
49841;BME280;35738;49.890;5.930;2022-12-07T01:22:49;95841.16;;;-0.23;100.00
49841;BME280;35738;49.890;5.930;2022-12-07T01:25:15;95839.56;;;-0.19;100.00
49841;BME280;35738;49.890;5.930;2022-12-07T01:27:42;95832.50;;;-0.20;100.00
49841;BME280;35738;49.890;5.930;2022-12-07T01:30:10;95837.91;;;-0.20;100.00
49841;BME280;35738;49.890;5.930;2022-12-07T01:32:37;95834.16;;;-0.19;100.00
49841;BME280;35738;49.890;5.930;2022-12-07T01:35:04;95836.59;;;-0.18;100.00
49841;BME280;35738;49.890;5.930;2022-12-07T01:37:38;95839.03;;;-0.16;100.00
49841;BME280;35738;49.890;5.930;2022-12-07T01:40:07;95838.50;;;-0.13;100.00
49841;BME280;35738;49.890;5.930;2022-12-07T01:42:34;95836.31;;;-0.16;100.00
49841;BME280;35738;49.890;5.930;2022-12-07T01:47:53;95832.28;;;-0.14;100.00
49841;BME280;35738;49.890;5.930;2022-12-07T01:50:25;95833.09;;;-0.13;100.00
49841;BME280;35738;49.890;5.930;2022-12-07T01:52:54;95839.56;;;-0.14;100.00
49841;BME280;35738;49.890;5.930;2022-12-07T01:55:22;95829.84;;;-0.15;100.00
49841;BME280;35738;49.890;5.930;2022-12-07T01:57:52;95817.69;;;-0.13;100.00
49841;BME280;35738;49.890;5.930;2022-12-07T02:00:20;95830.38;;;-0.13;100.00
49841;BME280;35738;49.890;5.930;2022-12-07T02:02:55;95819.56;;;-0.13;100.00
49841;BME280;35738;49.890;5.930;2022-12-07T02:05:24;95819.56;;;-0.13;100.00
49841;BME280;35738;49.890;5.930;2022-12-07T02:07:53;95820.09;;;-0.16;100.00
49841;BME280;35738;49.890;5.930;2022-12-07T02:10:24;95821.19;;;-0.17;100.00
49841;BME280;35738;49.890;5.930;2022-12-07T02:13:01;95816.84;;;-0.18;100.00
49841;BME280;35738;49.890;5.930;2022-12-07T02:18:17;95815.25;;;-0.14;100.00
49841;BME280;35738;49.890;5.930;2022-12-07T02:20:58;95816.88;;;-0.13;100.00
49841;BME280;35738;49.890;5.930;2022-12-07T02:29:35;95803.09;;;-0.12;100.00
49841;BME280;35738;49.890;5.930;2022-12-07T02:32:19;95788.75;;;-0.12;100.00
49841;BME280;35738;49.890;5.930;2022-12-07T02:40:19;95803.91;;;-0.11;100.00
49841;BME280;35738;49.890;5.930;2022-12-07T02:42:55;95797.97;;;-0.08;100.00
49841;BME280;35738;49.890;5.930;2022-12-07T02:45:25;95801.50;;;-0.08;100.00
49841;BME280;35738;49.890;5.930;2022-12-07T02:47:56;95799.31;;;-0.11;100.00
49841;BME280;35738;49.890;5.930;2022-12-07T02:50:25;95802.56;;;-0.09;100.00
49841;BME280;35738;49.890;5.930;2022-12-07T02:52:52;95799.88;;;-0.09;100.00
49841;BME280;35738;49.890;5.930;2022-12-07T02:55:26;95799.06;;;-0.04;100.00
49841;BME280;35738;49.890;5.930;2022-12-07T03:00:27;95791.50;;;-0.02;100.00
49841;BME280;35738;49.890;5.930;2022-12-07T03:03:00;95781.81;;;0.02;100.00
49841;BME280;35738;49.890;5.930;2022-12-07T03:06:16;95784.78;;;0.01;100.00
49841;BME280;35738;49.890;5.930;2022-12-07T03:14:24;95775.88;;;0.05;100.00
49841;BME280;35738;49.890;5.930;2022-12-07T03:17:01;95784.53;;;0.07;100.00
49841;BME280;35738;49.890;5.930;2022-12-07T03:19:32;95782.91;;;0.06;100.00
49841;BME280;35738;49.890;5.930;2022-12-07T03:22:03;95779.66;;;0.04;100.00
49841;BME280;35738;49.890;5.930;2022-12-07T03:24:50;95775.09;;;0.10;100.00
49841;BME280;35738;49.890;5.930;2022-12-07T03:27:25;95778.59;;;0.10;100.00
49841;BME280;35738;49.890;5.930;2022-12-07T03:32:32;95772.66;;;0.13;100.00
49841;BME280;35738;49.890;5.930;2022-12-07T03:35:19;95778.06;;;0.13;100.00
49841;BME280;35738;49.890;5.930;2022-12-07T03:40:35;95779.69;;;0.14;100.00
49841;BME280;35738;49.890;5.930;2022-12-07T03:43:04;95782.41;;;0.14;100.00
49841;BME280;35738;49.890;5.930;2022-12-07T03:45:43;95781.31;;;0.15;100.00
49841;BME280;35738;49.890;5.930;2022-12-07T03:48:22;95782.69;;;0.18;100.00
49841;BME280;35738;49.890;5.930;2022-12-07T03:51:13;95781.88;;;0.17;100.00
49841;BME280;35738;49.890;5.930;2022-12-07T03:53:57;95779.97;;;0.18;100.00
49841;BME280;35738;49.890;5.930;2022-12-07T03:56:27;95784.56;;;0.17;100.00
49841;BME280;35738;49.890;5.930;2022-12-07T03:58:55;95787.81;;;0.14;100.00
49841;BME280;35738;49.890;5.930;2022-12-07T04:01:23;95770.50;;;0.15;100.00
49841;BME280;35738;49.890;5.930;2022-12-07T04:03:50;95778.63;;;0.20;100.00
49841;BME280;35738;49.890;5.930;2022-12-07T04:06:16;95779.16;;;0.17;100.00
49841;BME280;35738;49.890;5.930;2022-12-07T04:08:43;95788.91;;;0.18;100.00
49841;BME280;35738;49.890;5.930;2022-12-07T04:11:10;95786.19;;;0.18;100.00
49841;BME280;35738;49.890;5.930;2022-12-07T04:13:36;95778.63;;;0.15;100.00
49841;BME280;35738;49.890;5.930;2022-12-07T04:16:23;95778.63;;;0.15;100.00
49841;BME280;35738;49.890;5.930;2022-12-07T04:18:49;95775.91;;;0.15;100.00
49841;BME280;35738;49.890;5.930;2022-12-07T04:21:16;95782.41;;;0.19;100.00
49841;BME280;35738;49.890;5.930;2022-12-07T04:23:43;95775.94;;;0.20;100.00
49841;BME280;35738;49.890;5.930;2022-12-07T04:26:09;95774.84;;;0.21;100.00
49841;BME280;35738;49.890;5.930;2022-12-07T04:28:36;95771.06;;;0.22;100.00
49841;BME280;35738;49.890;5.930;2022-12-07T04:31:02;95776.47;;;0.22;100.00
49841;BME280;35738;49.890;5.930;2022-12-07T04:33:29;95768.91;;;0.24;100.00
49841;BME280;35738;49.890;5.930;2022-12-07T04:35:56;95769.72;;;0.25;100.00
49841;BME280;35738;49.890;5.930;2022-12-07T04:38:22;95764.59;;;0.28;100.00
49841;BME280;35738;49.890;5.930;2022-12-07T04:40:49;95780.00;;;0.28;100.00
49841;BME280;35738;49.890;5.930;2022-12-07T04:43:15;95771.06;;;0.27;100.00
49841;BME280;35738;49.890;5.930;2022-12-07T04:45:48;95774.06;;;0.31;100.00
49841;BME280;35738;49.890;5.930;2022-12-07T04:48:15;95766.22;;;0.29;100.00
49841;BME280;35738;49.890;5.930;2022-12-07T04:50:41;95776.50;;;0.32;100.00
49841;BME280;35738;49.890;5.930;2022-12-07T04:53:11;95782.16;;;0.31;100.00
49841;BME280;35738;49.890;5.930;2022-12-07T04:55:38;95775.13;;;0.30;100.00
49841;BME280;35738;49.890;5.930;2022-12-07T04:58:04;95772.16;;;0.31;100.00
49841;BME280;35738;49.890;5.930;2022-12-07T05:00:31;95767.28;;;0.34;100.00
49841;BME280;35738;49.890;5.930;2022-12-07T05:02:58;95771.91;;;0.33;100.00
49841;BME280;35738;49.890;5.930;2022-12-07T05:05:25;95763.22;;;0.31;100.00
49841;BME280;35738;49.890;5.930;2022-12-07T05:07:51;95768.91;;;0.35;100.00
49841;BME280;35738;49.890;5.930;2022-12-07T05:10:18;95770.00;;;0.34;100.00
49841;BME280;35738;49.890;5.930;2022-12-07T05:12:45;95774.59;;;0.38;100.00
49841;BME280;35738;49.890;5.930;2022-12-07T05:15:13;95770.28;;;0.37;100.00
49841;BME280;35738;49.890;5.930;2022-12-07T05:17:40;95780.56;;;0.40;100.00
49841;BME280;35738;49.890;5.930;2022-12-07T05:20:07;95771.63;;;0.40;100.00
49841;BME280;35738;49.890;5.930;2022-12-07T05:22:34;95767.03;;;0.40;100.00
49841;BME280;35738;49.890;5.930;2022-12-07T05:25:01;95762.97;;;0.38;100.00
49841;BME280;35738;49.890;5.930;2022-12-07T05:27:27;95765.16;;;0.41;100.00
49841;BME280;35738;49.890;5.930;2022-12-07T05:29:54;95771.09;;;0.38;100.00
49841;BME280;35738;49.890;5.930;2022-12-07T05:32:21;95762.44;;;0.41;100.00
49841;BME280;35738;49.890;5.930;2022-12-07T05:34:47;95767.84;;;0.41;100.00
49841;BME280;35738;49.890;5.930;2022-12-07T05:37:14;95768.66;;;0.41;100.00
49841;BME280;35738;49.890;5.930;2022-12-07T05:39:41;95777.59;;;0.42;100.00
49841;BME280;35738;49.890;5.930;2022-12-07T05:42:10;95771.09;;;0.43;100.00
49841;BME280;35738;49.890;5.930;2022-12-07T05:44:41;95776.50;;;0.43;100.00
49841;BME280;35738;49.890;5.930;2022-12-07T05:47:10;95774.06;;;0.41;100.00
49841;BME280;35738;49.890;5.930;2022-12-07T05:49:37;95770.28;;;0.42;100.00
49841;BME280;35738;49.890;5.930;2022-12-07T05:52:04;95761.63;;;0.40;100.00
49841;BME280;35738;49.890;5.930;2022-12-07T05:54:31;95771.09;;;0.38;100.00
49841;BME280;35738;49.890;5.930;2022-12-07T05:56:58;95778.13;;;0.34;100.00
49841;BME280;35738;49.890;5.930;2022-12-07T05:59:25;95775.69;;;0.32;100.00
49841;BME280;35738;49.890;5.930;2022-12-07T06:02:05;95774.88;;;0.31;100.00
49841;BME280;35738;49.890;5.930;2022-12-07T06:04:36;95786.75;;;0.25;100.00
49841;BME280;35738;49.890;5.930;2022-12-07T06:07:03;95780.53;;;0.25;100.00
49841;BME280;35738;49.890;5.930;2022-12-07T06:09:31;95780.25;;;0.21;100.00
49841;BME280;35738;49.890;5.930;2022-12-07T06:11:58;95774.84;;;0.21;100.00
49841;BME280;35738;49.890;5.930;2022-12-07T06:14:43;95778.63;;;0.20;100.00
49841;BME280;35738;49.890;5.930;2022-12-07T06:17:11;95775.38;;;0.18;100.00
49841;BME280;35738;49.890;5.930;2022-12-07T06:19:38;95779.19;;;0.22;100.00
49841;BME280;35738;49.890;5.930;2022-12-07T06:22:06;95781.34;;;0.20;100.00
49841;BME280;35738;49.890;5.930;2022-12-07T06:24:33;95774.56;;;0.18;100.00
49841;BME280;35738;49.890;5.930;2022-12-07T06:27:00;95773.22;;;0.20;100.00
49841;BME280;35738;49.890;5.930;2022-12-07T06:29:27;95771.59;;;0.19;100.00
49841;BME280;35738;49.890;5.930;2022-12-07T06:31:53;95772.66;;;0.18;100.00
49841;BME280;35738;49.890;5.930;2022-12-07T06:34:21;95776.72;;;0.21;100.00
49841;BME280;35738;49.890;5.930;2022-12-07T06:36:52;95775.09;;;0.20;100.00
49841;BME280;35738;49.890;5.930;2022-12-07T06:39:22;95769.69;;;0.20;100.00
49841;BME280;35738;49.890;5.930;2022-12-07T06:41:49;95775.66;;;0.22;100.00
49841;BME280;35738;49.890;5.930;2022-12-07T06:44:16;95777.28;;;0.23;100.00
49841;BME280;35738;49.890;5.930;2022-12-07T06:46:42;95779.44;;;0.26;100.00
49841;BME280;35738;49.890;5.930;2022-12-07T06:49:09;95784.31;;;0.24;100.00
49841;BME280;35738;49.890;5.930;2022-12-07T06:51:36;95780.53;;;0.25;100.00
49841;BME280;35738;49.890;5.930;2022-12-07T06:54:03;95779.72;;;0.24;100.00
49841;BME280;35738;49.890;5.930;2022-12-07T06:56:30;95779.16;;;0.17;100.00
49841;BME280;35738;49.890;5.930;2022-12-07T06:58:56;95780.78;;;0.18;100.00
49841;BME280;35738;49.890;5.930;2022-12-07T07:01:23;95779.72;;;0.19;100.00
49841;BME280;35738;49.890;5.930;2022-12-07T07:03:50;95781.59;;;0.19;100.00
49841;BME280;35738;49.890;5.930;2022-12-07T07:06:16;95791.06;;;0.21;100.00
49841;BME280;35738;49.890;5.930;2022-12-07T07:08:43;95788.09;;;0.23;100.00
49841;BME280;35738;49.890;5.930;2022-12-07T07:11:10;95776.19;;;0.19;100.00
49841;BME280;35738;49.890;5.930;2022-12-07T07:13:37;95778.63;;;0.15;100.00
49841;BME280;35738;49.890;5.930;2022-12-07T07:16:05;95788.06;;;0.13;100.00
49841;BME280;35738;49.890;5.930;2022-12-07T07:18:32;95793.50;;;0.18;100.00
49841;BME280;35738;49.890;5.930;2022-12-07T07:20:58;95791.06;;;0.21;100.00
49841;BME280;35738;49.890;5.930;2022-12-07T07:23:25;95796.47;;;0.21;100.00
49841;BME280;35738;49.890;5.930;2022-12-07T07:25:51;95793.50;;;0.23;100.00
49841;BME280;35738;49.890;5.930;2022-12-07T07:28:18;95802.16;;;0.25;100.00
49841;BME280;35738;49.890;5.930;2022-12-07T07:30:45;95805.69;;;0.25;100.00
49841;BME280;35738;49.890;5.930;2022-12-07T07:33:12;95799.19;;;0.26;100.00
49841;BME280;35738;49.890;5.930;2022-12-07T07:35:39;95800.53;;;0.24;100.00
49841;BME280;35738;49.890;5.930;2022-12-07T07:38:06;95803.25;;;0.24;100.00
49841;BME280;35738;49.890;5.930;2022-12-07T07:40:33;95808.41;;;0.25;100.00
49841;BME280;35738;49.890;5.930;2022-12-07T07:43:00;95813.81;;;0.25;100.00
49841;BME280;35738;49.890;5.930;2022-12-07T07:45:27;95803.25;;;0.29;100.00
49841;BME280;35738;49.890;5.930;2022-12-07T07:47:53;95815.97;;;0.28;100.00
49841;BME280;35738;49.890;5.930;2022-12-07T07:50:21;95814.88;;;0.24;100.00
49841;BME280;35738;49.890;5.930;2022-12-07T07:52:48;95812.19;;;0.24;100.00
49841;BME280;35738;49.890;5.930;2022-12-07T07:55:15;95819.19;;;0.20;100.00
49841;BME280;35738;49.890;5.930;2022-12-07T07:57:44;95821.38;;;0.23;100.00
49841;BME280;35738;49.890;5.930;2022-12-07T08:00:19;95828.13;;;0.21;100.00
49841;BME280;35738;49.890;5.930;2022-12-07T08:02:46;95823.81;;;0.25;100.00
49841;BME280;35738;49.890;5.930;2022-12-07T08:05:13;95841.13;;;0.29;100.00
49841;BME280;35738;49.890;5.930;2022-12-07T08:07:40;95824.91;;;0.29;100.00
49841;BME280;35738;49.890;5.930;2022-12-07T08:10:08;95831.41;;;0.33;100.00
49841;BME280;35738;49.890;5.930;2022-12-07T08:12:41;95828.44;;;0.35;100.00
49841;BME280;35738;49.890;5.930;2022-12-07T08:15:28;95822.19;;;0.29;100.00
49841;BME280;35738;49.890;5.930;2022-12-07T08:17:55;95826.25;;;0.31;100.00
49841;BME280;35738;49.890;5.930;2022-12-07T08:20:22;95832.22;;;0.34;100.00
49841;BME280;35738;49.890;5.930;2022-12-07T08:22:49;95824.66;;;0.36;100.00
49841;BME280;35738;49.890;5.930;2022-12-07T08:25:16;95823.03;;;0.40;100.00
49841;BME280;35738;49.890;5.930;2022-12-07T08:27:42;95827.38;;;0.41;100.00
49841;BME280;35738;49.890;5.930;2022-12-07T08:30:09;95834.41;;;0.37;100.00
49841;BME280;35738;49.890;5.930;2022-12-07T08:32:36;95836.84;;;0.38;100.00
49841;BME280;35738;49.890;5.930;2022-12-07T08:35:03;95833.28;;;0.32;100.00
49841;BME280;35738;49.890;5.930;2022-12-07T08:37:29;95834.91;;;0.28;100.00
49841;BME280;35738;49.890;5.930;2022-12-07T08:39:57;95834.91;;;0.23;100.00
49841;BME280;35738;49.890;5.930;2022-12-07T08:42:24;95840.56;;;0.22;100.00
49841;BME280;35738;49.890;5.930;2022-12-07T08:44:56;95837.38;;;0.35;100.00
49841;BME280;35738;49.890;5.930;2022-12-07T08:47:24;95841.19;;;0.49;100.00
49841;BME280;35738;49.890;5.930;2022-12-07T08:49:52;95839.03;;;0.51;100.00
49841;BME280;35738;49.890;5.930;2022-12-07T08:52:20;95834.97;;;0.54;100.00
49841;BME280;35738;49.890;5.930;2022-12-07T08:54:47;95829.84;;;0.52;100.00
49841;BME280;35738;49.890;5.930;2022-12-07T08:57:13;95834.44;;;0.52;100.00
49841;BME280;35738;49.890;5.930;2022-12-07T08:59:40;95831.19;;;0.55;100.00
49841;BME280;35738;49.890;5.930;2022-12-07T09:02:07;95834.44;;;0.52;100.00
49841;BME280;35738;49.890;5.930;2022-12-07T09:04:33;95834.69;;;0.50;100.00
49841;BME280;35738;49.890;5.930;2022-12-07T09:07:00;95828.47;;;0.50;100.00
49841;BME280;35738;49.890;5.930;2022-12-07T09:09:27;95830.09;;;0.56;100.00
49841;BME280;35738;49.890;5.930;2022-12-07T09:11:53;95829.88;;;0.73;100.00
49841;BME280;35738;49.890;5.930;2022-12-07T09:14:20;95837.22;;;0.82;100.00
49841;BME280;35738;49.890;5.930;2022-12-07T09:16:47;95833.69;;;0.82;100.00
49841;BME280;35738;49.890;5.930;2022-12-07T09:19:14;95841.81;;;0.82;100.00
49841;BME280;35738;49.890;5.930;2022-12-07T09:21:40;95833.44;;;0.78;100.00
49841;BME280;35738;49.890;5.930;2022-12-07T09:24:07;95838.84;;;0.78;100.00
49841;BME280;35738;49.890;5.930;2022-12-07T09:26:35;95833.44;;;0.83;100.00
49841;BME280;35738;49.890;5.930;2022-12-07T09:29:02;95838.56;;;0.80;100.00
49841;BME280;35738;49.890;5.930;2022-12-07T09:31:29;95837.75;;;0.79;100.00
49841;BME280;35738;49.890;5.930;2022-12-07T09:33:58;95836.69;;;0.80;100.00
49841;BME280;35738;49.890;5.930;2022-12-07T09:36:26;95836.41;;;0.77;100.00
49841;BME280;35738;49.890;5.930;2022-12-07T09:38:53;95839.38;;;0.75;100.00
49841;BME280;35738;49.890;5.930;2022-12-07T09:41:20;95831.75;;;0.67;100.00
49841;BME280;35738;49.890;5.930;2022-12-07T09:43:48;95835.00;;;0.69;100.00
49841;BME280;35738;49.890;5.930;2022-12-07T09:46:19;95827.16;;;0.73;100.00
49841;BME280;35738;49.890;5.930;2022-12-07T09:48:47;95819.84;;;0.68;100.00
49841;BME280;35738;49.890;5.930;2022-12-07T09:51:17;95822.00;;;0.66;100.00
49841;BME280;35738;49.890;5.930;2022-12-07T09:53:51;95832.84;;;0.71;100.00
49841;BME280;35738;49.890;5.930;2022-12-07T09:56:19;95829.38;;;0.91;100.00
49841;BME280;35738;49.890;5.930;2022-12-07T09:58:47;95826.41;;;0.92;100.00
49841;BME280;35738;49.890;5.930;2022-12-07T10:01:18;95822.88;;;0.97;100.00
49841;BME280;35738;49.890;5.930;2022-12-07T10:03:59;95809.59;;;1.11;100.00
49841;BME280;35738;49.890;5.930;2022-12-07T10:06:27;95814.50;;;0.99;100.00
49841;BME280;35738;49.890;5.930;2022-12-07T10:08:53;95822.88;;;0.92;100.00
49841;BME280;35738;49.890;5.930;2022-12-07T10:11:20;95808.53;;;0.97;100.00
49841;BME280;35738;49.890;5.930;2022-12-07T10:13:51;95809.63;;;1.01;100.00
49841;BME280;35738;49.890;5.930;2022-12-07T10:16:40;95803.66;;;1.14;100.00
49841;BME280;35738;49.890;5.930;2022-12-07T10:19:27;95803.09;;;1.27;100.00
49841;BME280;35738;49.890;5.930;2022-12-07T10:22:14;95800.38;;;1.27;100.00
49841;BME280;35738;49.890;5.930;2022-12-07T10:24:43;95796.31;;;1.30;100.00
49841;BME280;35738;49.890;5.930;2022-12-07T10:27:37;95793.63;;;1.24;100.00
49841;BME280;35738;49.890;5.930;2022-12-07T10:30:07;95797.94;;;1.36;100.00
49841;BME280;35738;49.890;5.930;2022-12-07T10:32:36;95790.34;;;1.43;100.00
49841;BME280;35738;49.890;5.930;2022-12-07T10:35:23;95794.94;;;1.42;100.00
49841;BME280;35738;49.890;5.930;2022-12-07T10:37:51;95789.81;;;1.56;100.00
49841;BME280;35738;49.890;5.930;2022-12-07T10:40:36;95791.41;;;1.47;100.00
49841;BME280;35738;49.890;5.930;2022-12-07T10:59:49;95765.69;;;1.54;100.00
49841;BME280;35738;49.890;5.930;2022-12-07T11:05:11;95772.19;;;1.53;100.00
49841;BME280;35738;49.890;5.930;2022-12-07T11:16:21;95745.50;;;1.86;100.00
49841;BME280;35738;49.890;5.930;2022-12-07T11:24:19;95749.28;;;1.95;100.00
49841;BME280;35738;49.890;5.930;2022-12-07T11:27:14;95741.13;;;1.95;100.00
49841;BME280;35738;49.890;5.930;2022-12-07T11:29:55;95748.19;;;1.96;100.00
49841;BME280;35738;49.890;5.930;2022-12-07T11:37:37;95737.69;;;1.79;100.00
49841;BME280;35738;49.890;5.930;2022-12-07T11:40:19;95730.06;;;1.81;100.00
49841;BME280;35738;49.890;5.930;2022-12-07T11:45:37;95733.69;;;2.16;100.00
49841;BME280;35738;49.890;5.930;2022-12-07T11:48:24;95725.34;;;2.07;100.00
49841;BME280;35738;49.890;5.930;2022-12-07T11:50:56;95724.22;;;2.13;100.00
49841;BME280;35738;49.890;5.930;2022-12-07T11:53:38;95723.91;;;2.25;100.00
49841;BME280;35738;49.890;5.930;2022-12-07T11:56:14;95716.63;;;2.60;100.00
49841;BME280;35738;49.890;5.930;2022-12-07T12:04:23;95712.41;;;3.11;100.00
49841;BME280;35738;49.890;5.930;2022-12-07T12:06:54;95707.56;;;3.32;100.00
49841;BME280;35738;49.890;5.930;2022-12-07T12:09:30;95712.78;;;3.29;100.00
49841;BME280;35738;49.890;5.930;2022-12-07T12:12:42;95703.28;;;3.26;99.69
49841;BME280;35738;49.890;5.930;2022-12-07T12:19:00;95707.28;;;2.37;100.00
49841;BME280;35738;49.890;5.930;2022-12-07T12:21:31;95707.13;;;2.13;100.00
49841;BME280;35738;49.890;5.930;2022-12-07T12:24:02;95719.84;;;2.17;100.00
49841;BME280;35738;49.890;5.930;2022-12-07T12:26:33;95704.34;;;2.28;100.00
49841;BME280;35738;49.890;5.930;2022-12-07T12:29:06;95704.50;;;2.47;100.00
49841;BME280;35738;49.890;5.930;2022-12-07T12:31:47;95698.16;;;2.17;100.00
49841;BME280;35738;49.890;5.930;2022-12-07T12:42:54;95690.59;;;2.09;100.00
49841;BME280;35738;49.890;5.930;2022-12-07T12:45:32;95676.44;;;2.17;100.00
49841;BME280;35738;49.890;5.930;2022-12-07T12:50:32;95667.91;;;2.39;100.00
49841;BME280;35738;49.890;5.930;2022-12-07T12:53:24;95673.59;;;2.43;100.00
49841;BME280;35738;49.890;5.930;2022-12-07T13:01:50;95665.88;;;2.55;100.00
49841;BME280;35738;49.890;5.930;2022-12-07T13:03:58;95660.53;;;2.45;100.00
49841;BME280;35738;49.890;5.930;2022-12-07T13:08:53;95658.63;;;2.45;100.00
49841;BME280;35738;49.890;5.930;2022-12-07T13:11:35;95659.31;;;2.27;100.00
49841;BME280;35738;49.890;5.930;2022-12-07T13:17:10;95659.13;;;2.13;100.00
49841;BME280;35738;49.890;5.930;2022-12-07T13:27:30;95648.53;;;1.68;100.00
49841;BME280;35738;49.890;5.930;2022-12-07T13:29:57;95650.22;;;1.58;100.00
49841;BME280;35738;49.890;5.930;2022-12-07T13:32:27;95654.84;;;1.53;100.00
49841;BME280;35738;49.890;5.930;2022-12-07T13:34:54;95639.63;;;1.57;100.00
49841;BME280;35738;49.890;5.930;2022-12-07T13:37:27;95643.69;;;1.59;100.00
49841;BME280;35738;49.890;5.930;2022-12-07T13:40:18;95633.91;;;1.64;100.00
49841;BME280;35738;49.890;5.930;2022-12-07T13:42:45;95639.31;;;1.69;100.00
49841;BME280;35738;49.890;5.930;2022-12-07T13:47:52;95636.09;;;1.62;100.00
49841;BME280;35738;49.890;5.930;2022-12-07T13:50:29;95629.88;;;1.56;100.00
49841;BME280;35738;49.890;5.930;2022-12-07T13:52:57;95633.97;;;1.53;100.00
49841;BME280;35738;49.890;5.930;2022-12-07T13:55:25;95631.25;;;1.48;100.00
49841;BME280;35738;49.890;5.930;2022-12-07T13:57:53;95623.41;;;1.47;100.00
49841;BME280;35738;49.890;5.930;2022-12-07T14:00:28;95622.09;;;1.39;100.00
49841;BME280;35738;49.890;5.930;2022-12-07T14:05:30;95624.81;;;1.34;100.00
49841;BME280;35738;49.890;5.930;2022-12-07T14:08:22;95619.94;;;1.31;100.00
49841;BME280;35738;49.890;5.930;2022-12-07T14:15:50;95625.38;;;1.31;100.00
49841;BME280;35738;49.890;5.930;2022-12-07T14:18:46;95624.34;;;1.17;100.00
49841;BME280;35738;49.890;5.930;2022-12-07T14:23:40;95628.41;;;1.14;100.00
49841;BME280;35738;49.890;5.930;2022-12-07T14:26:14;95625.97;;;1.18;100.00
49841;BME280;35738;49.890;5.930;2022-12-07T14:28:42;95623.78;;;1.20;100.00
49841;BME280;35738;49.890;5.930;2022-12-07T14:31:18;95622.41;;;1.22;100.00
49841;BME280;35738;49.890;5.930;2022-12-07T14:33:59;95615.63;;;1.25;100.00
49841;BME280;35738;49.890;5.930;2022-12-07T14:36:25;95615.09;;;1.23;100.00
49841;BME280;35738;49.890;5.930;2022-12-07T14:38:52;95615.91;;;1.23;100.00
49841;BME280;35738;49.890;5.930;2022-12-07T14:41:22;95627.28;;;1.25;100.00
49841;BME280;35738;49.890;5.930;2022-12-07T14:44:11;95620.25;;;1.24;100.00
49841;BME280;35738;49.890;5.930;2022-12-07T14:46:58;95622.69;;;1.26;100.00
49841;BME280;35738;49.890;5.930;2022-12-07T14:49:44;95610.22;;;1.25;100.00
49841;BME280;35738;49.890;5.930;2022-12-07T14:52:16;95611.88;;;1.21;100.00
49841;BME280;35738;49.890;5.930;2022-12-07T14:55:04;95609.72;;;1.18;100.00
49841;BME280;35738;49.890;5.930;2022-12-07T14:57:31;95611.31;;;1.19;100.00
49841;BME280;35738;49.890;5.930;2022-12-07T14:59:58;95608.63;;;1.19;100.00
49841;BME280;35738;49.890;5.930;2022-12-07T15:02:26;95611.31;;;1.19;100.00
49841;BME280;35738;49.890;5.930;2022-12-07T15:04:53;95609.19;;;1.16;100.00
49841;BME280;35738;49.890;5.930;2022-12-07T15:07:24;95614.59;;;1.16;100.00
49841;BME280;35738;49.890;5.930;2022-12-07T15:09:53;95615.69;;;1.15;100.00
49841;BME280;35738;49.890;5.930;2022-12-07T15:12:21;95610.81;;;1.12;100.00
49841;BME280;35738;49.890;5.930;2022-12-07T15:14:47;95610.81;;;1.12;100.00
49841;BME280;35738;49.890;5.930;2022-12-07T15:17:14;95610.81;;;1.12;100.00
49841;BME280;35738;49.890;5.930;2022-12-07T15:19:56;95599.19;;;1.06;100.00
49841;BME280;35738;49.890;5.930;2022-12-07T15:22:23;95599.19;;;1.06;100.00